Huvudsida
METAR-TAF:

METAR-TAF

Flygplatser :

Örebro flygplats

Örebro, Sverige

latitud: 59-14N, longitud: 015-03E, höjd: 57 m

Aktuellt väderrapport

Denna rapport gjordes för 15 minuter sedan, klockan 11:20 UTC
Vind 7 kt från väst/sydväst, varierande mellan syd/sydväst och väst/nordväst
Temperatur 25°C
Fuktighet 54%
Tryck 1010 hPa
Sikt 10 km eller mer

METAR: ESOE 231120Z AUTO 24007KT 210V290 9999 NCD 25/15 Q1010

Tid: 13:35 (11:35 UTC)

Väderprognos

Denna rapport gjordes för 9 timmar och 5 minuter sedan, klockan 02:30 UTC
Prognos gäller från 23 kl. 03 UTC till 23 kl. 06 UTC
Vind 5 kt från syd/sydväst
Sikt 10 km eller mer
Brutna moln på en höjd av 2000 ft
Sannolikhet 40%
från 23 kl. 03 UTC till 23 kl. 06 UTC
Brutna moln på en höjd av 1400 ft

TAF: ESOE 230230Z 2303/2306 21005KT 9999 BKN020 PROB40 2303/2306 BKN014

Aktuella väderrapporter och prognoser från 4000 flygplatser (METAR- och TAF-rapporter).

De tillgängliga stationerna syns som gula och röda prickar på kartan.

För musen över prickarna för att se namnen på stationerna.

Klicka sedan för att få väderrapporter och prognoser.

För att ändra kartan: Klicka på de gröna knapparna med ett svart kors på för att zooma in; den gröna knappen med ett streck på för att zooma ut; eller på de gröna pilarna för angränsande kartor.


METAR-TAF: